Terminal Aerodrome Forecast
Issued by NWS

Home | Current Version | Previous Version | Text Only | Print | Product List | Glossary On
Versions: 1 2 3 4 5 6 7 8 9 10 11 12 13 14 15
000
FTUS46 KMFR 250500
TAFOTH
TAF
KOTH 250520Z 2506/2606 15008KT P6SM OVC060 WS020/19040KT
     FM251200 16012G20KT P6SM -RA OVC040 WS020/19045KT
     FM251800 16014G25KT 5SM RA BR OVC035
     FM252100 22012G20KT 4SM -SHRA BR OVC020
     FM260100 22008KT 5SM -SHRA BR OVC015=

USA.gov is the U.S. government's official web portal to all federal, state and local government web resources and services.